Decoded Metar for UKOO (ODESSA in UKRAINE) (IATA:ODS) | Meteo·Mobile Aviation Weather
aviador You're here:

UKOO Decoded Metar

ODESSA in UKRAINE
Report Time2018-10-17 03:00:00
UTC Time2018-10-17 03:24:42
Flight Rules vfr VFR
Wind040° at 6 kt
W.Decomp.*RWY 34: 3.4 kt HW 5.0 kt RCW
W.Rank040° ranks 10
Current wind is below 040° avg. (8.4)
Visibility9999 m
Phenomena:N/A
Clouds:N/A
Expected CloudBase > 1,600 ft AGL from Temp-Dew spread
CeilingNone
Temp13°C (ISA -2)
Dew Point09°C (77% RH)
AAT10.6°C
QNH1023 hPa
Density Alt-279 ft
Elevation115 ft
Report Wrong Elevation
Raw Report
METAR UKOO 170300Z 04003MPS CAVOK 13/09 Q1023 R34/090060 NOSIG=

Extra information for UKOO:More info

Metar Taf Metar & Taf Last 4 Metars F.Rules Stats Wind Profile Meteogram Temp Stats Airport Information Weather charts Add Link Nearby VenuesMetar ALERT Operation Metar Decoded Social comments